Sullivan, Illinois
Current Conditions -  °F | °C
As of 3:53 AM on Sunday 25 Jan 2015 (Local Time) from KMTO Reporting Station
Broken Clouds Broken Clouds  
Wind Chill: 32°   Ceiling: 10000
Heat Index: 38°   Visibility: 10mi
Dew Point: 31°   Wind: 8mph
Humidity: 76%   Direction: 180°S
Pressure: 29.62"   Gusts: NA
Location:  39.6°N, 88.61°W
Report Text: KMTO 250953Z AUTO 18007KT 10SM BKN100 03/M01 A2962 RMK AO2 SLP033 T00331006
Loading
Personal Weather Stations






























Interactive Weather Map New forecast layout! Learn more

10-Day Weather Forecast

Advertisements
Track Severe Weather on mobile